KASX/ASX METAR and TAF weather

Enter ICAO airport designator
Station Type Date Time Source
KASX METAR 2019/08/25 17:53 UTC NOAA

KASX 251753Z AUTO 19009KT 10SM BKN049 22/11 A3007 RMK AO2 SLP185 T02220106 10239 20150 58016


Station Type Date Time Source
KASX Decoded METAR 2019/08/25 17:53 UTC NOAA

Station name not available
Aug 25, 2019 - 01:53 PM EDT / 2019.08.25 1753 UTC
Wind: from the S (190 degrees) at 10 MPH (9 KT):0
Visibility: 10 mile(s):0
Sky conditions: mostly cloudy
Temperature: 72.0 F (22.2 C)
Dew Point: 51.1 F (10.6 C)
Relative Humidity: 47%
Pressure (altimeter): 30.07 in. Hg (1018 hPa)
Pressure tendency: 0.05 inches (1.6 hPa) lower than three hours ago
ob: KASX 251753Z AUTO 19009KT 10SM BKN049 22/11 A3007 RMK AO2 SLP185 T02220106 10239 20150 58016
cycle: 18

Station Type Date Time Source
KASX TAF UTC NOAA

Error!

Example: see airport list